Darton, United Kingdom
Current Conditions -  °F | °C
As of 12:20 PM on Wednesday 28 Jan 2015 (Local Time) from EGNM Reporting Station
Scattered Clouds Scattered Clouds  
Wind Chill: 25°   Ceiling: Unl
Heat Index: 37°   Visibility: 6mi
Dew Point: 30°   Wind: 31mph
Humidity: 75%   Direction: 280°W
Pressure: 29.32"   Gusts: 46mph
Location:  53.59°N, 1.53°W
Report Text: EGNM 281220Z 28027G40KT 250V310 9999 FEW017TCU SCT031 03/M01 Q0993
Loading
Personal Weather Stations






























Interactive Weather Map New forecast layout! Learn more

10-Day Weather Forecast

Advertisements
Track Severe Weather on mobile